createdAt,value
2022-10-23T00:01:38.194Z,18.80
2022-10-23T00:04:22.889Z,19.47
2022-10-23T00:07:06.352Z,19.67
2022-10-23T00:09:49.605Z,20.73
2022-10-23T00:12:34.110Z,21.10
2022-10-23T00:15:21.015Z,20.33
2022-10-23T00:18:04.193Z,20.67
2022-10-23T00:20:47.355Z,20.80
2022-10-23T00:23:31.683Z,20.83
2022-10-23T00:26:16.039Z,19.53
2022-10-23T00:28:59.225Z,20.17
2022-10-23T00:31:43.725Z,19.73
2022-10-23T00:34:27.165Z,19.23
2022-10-23T00:37:10.274Z,19.43
2022-10-23T00:39:53.519Z,18.00
2022-10-23T00:42:36.704Z,19.83
2022-10-23T00:45:23.388Z,19.63
2022-10-23T00:48:08.234Z,19.37
2022-10-23T00:50:51.738Z,18.47
2022-10-23T00:53:34.913Z,20.00
2022-10-23T00:56:18.045Z,18.23
2022-10-23T00:59:01.416Z,18.70
2022-10-23T01:01:44.987Z,19.53
2022-10-23T01:04:30.442Z,20.20
2022-10-23T01:07:20.136Z,21.13
2022-10-23T01:10:07.887Z,23.00
2022-10-23T01:12:56.654Z,26.10
2022-10-23T01:15:46.039Z,26.13
2022-10-23T01:18:36.021Z,29.30
2022-10-23T01:21:28.986Z,31.27
2022-10-23T01:24:20.586Z,28.27
2022-10-23T01:27:17.096Z,30.13
2022-10-23T01:30:08.885Z,29.63
2022-10-23T01:32:57.029Z,26.30
2022-10-23T01:35:48.684Z,26.23
2022-10-23T01:38:40.693Z,23.93
2022-10-23T01:41:29.896Z,25.87
2022-10-23T01:44:21.029Z,25.17
2022-10-23T01:47:07.161Z,25.77
2022-10-23T01:49:52.709Z,25.27
2022-10-23T01:52:35.916Z,26.03
2022-10-23T01:55:19.338Z,26.37
2022-10-23T01:58:04.005Z,26.50
2022-10-23T02:00:49.521Z,26.13
2022-10-23T02:03:35.202Z,25.23
2022-10-23T02:06:18.505Z,25.00
2022-10-23T02:09:01.677Z,25.63
2022-10-23T02:11:55.414Z,28.00
2022-10-23T02:14:45.331Z,25.50
2022-10-23T02:17:42.079Z,26.53
2022-10-23T02:20:30.914Z,26.20
2022-10-23T02:23:21.593Z,26.23
2022-10-23T02:26:09.734Z,26.50
2022-10-23T02:28:59.756Z,24.33
2022-10-23T02:31:43.080Z,25.50
2022-10-23T02:34:27.700Z,24.03
2022-10-23T02:37:10.874Z,25.17
2022-10-23T02:39:56.155Z,24.00
2022-10-23T02:42:45.817Z,22.57
2022-10-23T02:45:33.830Z,24.30
2022-10-23T02:48:23.212Z,25.23
2022-10-23T02:51:16.146Z,25.57
2022-10-23T02:54:07.893Z,23.77
2022-10-23T02:56:55.117Z,24.23
2022-10-23T02:59:45.301Z,23.27
2022-10-23T03:02:34.669Z,23.90
2022-10-23T03:05:21.702Z,22.63
2022-10-23T03:08:06.955Z,21.37
2022-10-23T03:10:51.264Z,22.57
2022-10-23T03:13:34.398Z,23.40
2022-10-23T03:16:17.531Z,23.03
2022-10-23T03:19:00.664Z,22.17
2022-10-23T03:21:43.774Z,21.50
2022-10-23T03:24:28.327Z,21.50
2022-10-23T03:27:12.307Z,20.77
2022-10-23T03:29:55.379Z,21.70
2022-10-23T03:32:38.559Z,21.00
2022-10-23T03:35:28.118Z,20.87
2022-10-23T03:38:11.320Z,19.97
2022-10-23T03:40:55.828Z,20.90
2022-10-23T03:43:38.943Z,19.50
2022-10-23T03:46:22.138Z,19.47
2022-10-23T03:49:05.820Z,18.90
2022-10-23T03:51:52.243Z,18.77
2022-10-23T03:54:35.720Z,23.13
2022-10-23T03:57:20.209Z,22.43
2022-10-23T04:00:10.155Z,20.93
2022-10-23T04:02:53.215Z,42.80
2022-10-23T04:05:36.916Z,19.50
2022-10-23T04:08:20.753Z,18.40
2022-10-23T04:11:04.132Z,21.57
2022-10-23T04:13:48.823Z,33.53
2022-10-23T04:16:32.067Z,20.03
2022-10-23T04:19:19.086Z,17.70
2022-10-23T04:22:02.185Z,17.00
2022-10-23T04:24:46.825Z,17.90
2022-10-23T04:27:29.954Z,17.43
2022-10-23T04:30:15.041Z,19.20
2022-10-23T04:32:58.307Z,18.37
2022-10-23T04:35:41.619Z,18.17
2022-10-23T04:38:24.718Z,27.60
2022-10-23T04:41:08.358Z,19.27
2022-10-23T04:43:51.464Z,18.80
2022-10-23T04:46:37.478Z,18.07
2022-10-23T04:49:20.658Z,19.87
2022-10-23T04:52:04.034Z,19.10
2022-10-23T04:54:47.173Z,18.50
2022-10-23T04:57:30.340Z,18.67
2022-10-23T05:00:16.894Z,18.60
2022-10-23T05:03:01.642Z,19.47
2022-10-23T05:05:45.506Z,18.67
2022-10-23T05:08:29.218Z,18.73
2022-10-23T05:11:16.408Z,17.13
2022-10-23T05:13:59.484Z,17.60
2022-10-23T05:16:47.929Z,17.87
2022-10-23T05:19:38.041Z,18.47
2022-10-23T05:22:22.054Z,20.47
2022-10-23T05:25:06.486Z,21.70
2022-10-23T05:27:49.570Z,17.13
2022-10-23T05:30:34.196Z,16.20
2022-10-23T05:33:17.343Z,16.87
2022-10-23T05:36:03.381Z,19.57
2022-10-23T05:38:47.290Z,16.70
2022-10-23T05:41:30.433Z,18.07
2022-10-23T05:44:13.608Z,19.37
2022-10-23T05:46:56.730Z,18.57
2022-10-23T05:49:40.138Z,18.83
2022-10-23T05:52:24.794Z,19.97
2022-10-23T05:55:08.778Z,17.00
2022-10-23T05:57:51.902Z,15.03
2022-10-23T06:00:35.264Z,15.23
2022-10-23T06:03:18.380Z,14.43
2022-10-23T06:06:01.545Z,14.60
2022-10-23T06:08:46.029Z,14.57
2022-10-23T06:11:29.100Z,14.60
2022-10-23T06:14:12.298Z,14.67
2022-10-23T06:16:55.382Z,13.73
2022-10-23T06:19:38.479Z,13.63
2022-10-23T06:22:21.790Z,13.40
2022-10-23T06:25:07.456Z,12.67
2022-10-23T06:27:52.017Z,12.37
2022-10-23T06:30:35.149Z,13.17
2022-10-23T06:33:18.360Z,12.97
2022-10-23T06:36:02.476Z,12.87
2022-10-23T06:38:45.717Z,12.63
2022-10-23T06:41:30.334Z,11.87
2022-10-23T06:44:13.497Z,12.23
2022-10-23T06:46:56.974Z,12.07
2022-10-23T06:49:40.238Z,11.10
2022-10-23T06:52:45.327Z,10.47
2022-10-23T06:55:26.668Z,10.17
2022-10-23T06:58:11.635Z,9.77
2022-10-23T07:00:55.215Z,9.60
2022-10-23T07:03:38.405Z,9.57
2022-10-23T07:06:21.602Z,9.27
2022-10-23T07:09:04.939Z,8.80
2022-10-23T07:11:48.290Z,8.93
2022-10-23T07:14:32.843Z,8.73
2022-10-23T07:17:16.211Z,8.77
2022-10-23T07:20:01.266Z,8.40
2022-10-23T07:22:45.249Z,7.93
2022-10-23T07:25:28.838Z,8.33
2022-10-23T07:28:12.167Z,8.67
2022-10-23T07:31:00.109Z,8.23
2022-10-23T07:33:43.292Z,7.80
2022-10-23T07:36:26.664Z,8.00
2022-10-23T07:39:13.016Z,7.83
2022-10-23T07:41:56.262Z,7.07
2022-10-23T07:44:39.435Z,6.80
2022-10-23T07:47:24.137Z,6.70
2022-10-23T07:50:10.637Z,7.30
2022-10-23T07:52:53.912Z,6.80
2022-10-23T07:55:37.028Z,6.90
2022-10-23T07:58:20.497Z,6.90
2022-10-23T08:01:05.217Z,7.23
2022-10-23T08:03:49.862Z,6.97
2022-10-23T08:06:33.427Z,7.13
2022-10-23T08:09:16.556Z,7.20
2022-10-23T08:11:59.729Z,7.30
2022-10-23T08:14:42.838Z,6.83
2022-10-23T08:17:28.315Z,7.13
2022-10-23T08:20:13.855Z,6.93
2022-10-23T08:22:57.314Z,7.27
2022-10-23T08:25:41.408Z,7.97
2022-10-23T08:28:24.530Z,9.00
2022-10-23T08:31:09.466Z,6.73
2022-10-23T08:33:52.635Z,6.70
2022-10-23T08:36:39.283Z,6.83
2022-10-23T08:39:22.474Z,6.70
2022-10-23T08:42:05.954Z,6.97
2022-10-23T08:45:00.486Z,7.20
2022-10-23T08:47:47.983Z,7.37
2022-10-23T08:50:37.254Z,7.40
2022-10-23T08:53:26.658Z,6.43
2022-10-23T08:56:27.180Z,13.48
2022-10-23T08:59:20.646Z,6.38
2022-10-23T09:02:11.926Z,6.57
2022-10-23T09:04:58.135Z,6.20
2022-10-23T09:07:49.896Z,5.70
2022-10-23T09:10:52.908Z,6.05
2022-10-23T09:14:02.532Z,6.15
2022-10-23T09:16:57.759Z,6.30
2022-10-23T09:19:40.880Z,5.72
2022-10-23T09:22:24.060Z,6.47
2022-10-23T09:25:10.849Z,6.90
2022-10-23T09:27:59.065Z,7.37
2022-10-23T09:30:45.610Z,6.97
2022-10-23T09:33:29.626Z,7.97
2022-10-23T09:36:21.084Z,7.20
2022-10-23T09:39:04.327Z,7.20
2022-10-23T09:41:47.524Z,6.67
2022-10-23T09:44:34.433Z,6.93
2022-10-23T09:47:20.896Z,6.97
2022-10-23T09:50:04.156Z,6.80
2022-10-23T09:52:47.434Z,6.57
2022-10-23T09:55:31.138Z,6.53
2022-10-23T09:58:22.332Z,6.37
2022-10-23T10:01:07.404Z,5.67
2022-10-23T10:03:52.678Z,5.50
2022-10-23T10:06:36.422Z,5.28
2022-10-23T10:09:19.794Z,5.43
2022-10-23T10:12:18.349Z,4.90
2022-10-23T10:15:19.075Z,4.82
2022-10-23T10:18:14.651Z,4.72
2022-10-23T10:21:08.667Z,3.90
2022-10-23T10:24:00.827Z,4.20
2022-10-23T10:26:56.519Z,4.00
2022-10-23T10:29:55.410Z,4.07
2022-10-23T10:32:46.760Z,4.03
2022-10-23T10:35:44.496Z,4.32
2022-10-23T10:38:44.032Z,4.07
2022-10-23T10:41:42.669Z,4.80
2022-10-23T10:44:43.701Z,4.30
2022-10-23T10:47:48.769Z,3.95
2022-10-23T10:50:41.450Z,3.70
2022-10-23T10:53:43.066Z,3.53
2022-10-23T10:56:30.307Z,3.47
2022-10-23T10:59:18.511Z,4.20
2022-10-23T11:02:07.761Z,4.10
2022-10-23T11:05:47.408Z,3.58
2022-10-23T11:08:49.889Z,3.75
2022-10-23T11:11:42.422Z,7.95
2022-10-23T11:14:28.075Z,5.05
2022-10-23T11:17:17.323Z,4.40
2022-10-23T11:20:05.012Z,4.72
2022-10-23T11:22:57.248Z,5.10
2022-10-23T11:25:59.186Z,5.20
2022-10-23T11:28:58.409Z,4.90
2022-10-23T11:31:55.076Z,5.70
2022-10-23T11:35:12.021Z,8.70
2022-10-23T11:38:10.279Z,6.67
2022-10-23T11:40:58.475Z,6.30
2022-10-23T11:43:53.003Z,5.90
2022-10-23T11:46:38.410Z,6.57
2022-10-23T11:49:24.324Z,6.33
2022-10-23T11:52:25.721Z,6.60
2022-10-23T11:55:20.245Z,7.77
2022-10-23T11:58:22.439Z,7.17
2022-10-23T12:01:17.915Z,6.80
2022-10-23T12:04:04.408Z,6.63
2022-10-23T12:06:51.011Z,6.97
2022-10-23T12:09:42.006Z,6.90
2022-10-23T12:12:31.626Z,6.97
2022-10-23T12:15:24.854Z,7.17
2022-10-23T12:18:16.565Z,6.60
2022-10-23T12:21:01.238Z,5.97
2022-10-23T12:24:13.838Z,7.00
2022-10-23T12:27:07.525Z,7.00
2022-10-23T12:30:11.482Z,6.97
2022-10-23T12:33:09.349Z,8.33
2022-10-23T12:36:16.657Z,7.03
2022-10-23T12:38:59.790Z,7.40
2022-10-23T12:41:44.554Z,6.90
2022-10-23T12:44:28.482Z,7.37
2022-10-23T12:47:18.703Z,6.40
2022-10-23T12:50:03.248Z,6.47
2022-10-23T12:52:52.858Z,7.27
2022-10-23T12:55:49.717Z,6.50
2022-10-23T12:58:34.755Z,7.43
2022-10-23T13:01:26.050Z,6.17
2022-10-23T13:07:10.264Z,5.70
2022-10-23T13:09:55.163Z,6.97
2022-10-23T13:12:41.293Z,6.57
2022-10-23T13:15:25.406Z,6.47
2022-10-23T13:18:09.765Z,6.63
2022-10-23T13:20:59.583Z,6.57
2022-10-23T13:23:44.254Z,5.27
2022-10-23T13:26:32.184Z,6.47
2022-10-23T13:29:21.969Z,6.43
2022-10-23T13:32:11.844Z,5.43
2022-10-23T13:35:04.194Z,6.83
2022-10-23T13:38:09.415Z,5.80
2022-10-23T13:40:59.522Z,6.30
2022-10-23T13:43:43.457Z,5.37
2022-10-23T13:46:26.650Z,6.10
2022-10-23T13:49:09.789Z,6.07
2022-10-23T13:51:56.321Z,6.00
2022-10-23T13:54:39.365Z,7.20
2022-10-23T13:57:23.749Z,7.30
2022-10-23T14:00:08.240Z,7.23
2022-10-23T14:02:51.270Z,7.63
2022-10-23T14:05:34.363Z,6.57
2022-10-23T14:08:17.372Z,6.87
2022-10-23T14:11:00.421Z,5.90
2022-10-23T14:13:45.171Z,6.13
2022-10-23T14:16:28.430Z,6.67
2022-10-23T14:19:12.621Z,5.77
2022-10-23T14:21:55.592Z,6.40
2022-10-23T14:24:39.048Z,6.93
2022-10-23T14:27:22.062Z,6.47
2022-10-23T14:30:07.739Z,6.93
2022-10-23T14:32:51.002Z,6.97
2022-10-23T14:35:34.035Z,6.80
2022-10-23T14:38:17.051Z,7.17
2022-10-23T14:41:00.119Z,6.87
2022-10-23T14:43:43.812Z,7.37
2022-10-23T14:46:28.166Z,7.60
2022-10-23T14:49:11.230Z,6.83
2022-10-23T14:51:54.245Z,11.27
2022-10-23T14:54:37.285Z,7.37
2022-10-23T14:57:21.679Z,8.13
2022-10-23T15:00:05.379Z,8.87
2022-10-23T15:02:49.973Z,7.93
2022-10-23T15:05:32.964Z,7.60
2022-10-23T15:08:15.977Z,8.20
2022-10-23T15:11:01.457Z,7.37
2022-10-23T15:13:44.569Z,54.00
2022-10-23T15:16:28.342Z,13.13
2022-10-23T15:19:18.424Z,7.73
2022-10-23T15:22:02.049Z,7.70
2022-10-23T15:24:45.077Z,9.13
2022-10-23T15:27:28.067Z,10.23
2022-10-23T15:30:12.306Z,8.60
2022-10-23T15:32:55.299Z,8.70
2022-10-23T15:35:39.844Z,9.47
2022-10-23T15:38:23.587Z,7.97
2022-10-23T15:41:16.942Z,11.33
2022-10-23T15:44:01.037Z,8.93
2022-10-23T15:46:44.397Z,9.67
2022-10-23T15:49:30.463Z,9.10
2022-10-23T15:52:15.070Z,11.23
2022-10-23T15:54:58.082Z,14.77
2022-10-23T15:57:41.434Z,10.23
2022-10-23T16:00:24.489Z,10.43
2022-10-23T16:03:07.624Z,12.03
2022-10-23T16:05:50.667Z,10.60
2022-10-23T16:08:35.506Z,10.57
2022-10-23T16:11:24.380Z,9.00
2022-10-23T16:14:08.061Z,9.37
2022-10-23T16:16:51.107Z,9.63
2022-10-23T16:19:34.217Z,8.73
2022-10-23T16:22:17.544Z,8.27
2022-10-23T16:25:02.001Z,9.73
2022-10-23T16:27:45.812Z,9.03
2022-10-23T16:30:29.083Z,8.80
2022-10-23T16:33:12.145Z,8.40
2022-10-23T16:35:55.147Z,8.17
2022-10-23T16:38:38.296Z,7.70
2022-10-23T16:41:22.759Z,7.63
2022-10-23T16:44:06.341Z,7.90
2022-10-23T16:46:49.367Z,9.77
2022-10-23T16:49:32.443Z,8.60
2022-10-23T16:52:15.471Z,9.27
2022-10-23T16:54:58.559Z,10.83
2022-10-23T16:57:43.009Z,14.93
2022-10-23T17:00:30.996Z,18.13
2022-10-23T17:03:13.977Z,18.13
2022-10-23T17:06:01.903Z,17.77
2022-10-23T17:08:45.583Z,19.00
2022-10-23T17:11:30.931Z,19.93
2022-10-23T17:14:18.549Z,22.20
2022-10-23T17:17:03.730Z,20.93
2022-10-23T17:19:47.030Z,19.23
2022-10-23T17:22:30.225Z,20.40
2022-10-23T17:25:13.210Z,21.70
2022-10-23T17:27:56.283Z,21.30
2022-10-23T17:30:40.747Z,22.57
2022-10-23T17:33:23.898Z,18.07
2022-10-23T17:36:10.341Z,15.93
2022-10-23T17:38:54.335Z,13.33
2022-10-23T17:41:38.407Z,12.63
2022-10-23T17:44:21.425Z,12.43
2022-10-23T17:47:06.000Z,15.97
2022-10-23T17:49:49.012Z,12.27
2022-10-23T17:52:32.033Z,12.27
2022-10-23T17:55:15.039Z,12.10
2022-10-23T17:57:59.183Z,12.43
2022-10-23T18:00:42.186Z,12.63
2022-10-23T18:03:26.733Z,10.93
2022-10-23T18:06:12.093Z,11.03
2022-10-23T18:08:56.349Z,11.97
2022-10-23T18:11:45.218Z,11.73
2022-10-23T18:14:34.307Z,13.33
2022-10-23T18:17:19.641Z,11.90
2022-10-23T18:20:04.451Z,12.13
2022-10-23T18:22:47.491Z,11.70
2022-10-23T18:25:30.488Z,11.40
2022-10-23T18:28:13.487Z,11.57
2022-10-23T18:30:57.196Z,11.77
2022-10-23T18:33:40.727Z,12.10
2022-10-23T18:36:27.008Z,13.13
2022-10-23T18:39:13.400Z,12.97
2022-10-23T18:41:58.168Z,13.47
2022-10-23T18:44:46.842Z,12.67
2022-10-23T18:47:29.931Z,13.47
2022-10-23T18:50:13.027Z,12.07
2022-10-23T18:52:58.001Z,12.80
2022-10-23T18:55:46.422Z,13.30
2022-10-23T18:58:29.543Z,14.10
2022-10-23T19:01:12.700Z,14.83
2022-10-23T19:03:57.596Z,13.43
2022-10-23T19:06:40.599Z,11.30
2022-10-23T19:09:25.053Z,12.40
2022-10-23T19:12:08.276Z,10.40
2022-10-23T19:14:52.055Z,12.47
2022-10-23T19:17:35.176Z,11.70
2022-10-23T19:20:20.777Z,11.23
2022-10-23T19:23:06.837Z,11.10
2022-10-23T19:25:51.623Z,11.73
2022-10-23T19:28:37.651Z,10.10
2022-10-23T19:31:21.079Z,9.80
2022-10-23T19:34:04.562Z,9.40
2022-10-23T19:36:47.731Z,10.60
2022-10-23T19:39:30.838Z,9.50
2022-10-23T19:42:15.403Z,9.90
2022-10-23T19:44:58.459Z,8.93
2022-10-23T19:47:42.191Z,9.67
2022-10-23T19:50:25.589Z,9.63
2022-10-23T19:53:08.579Z,9.40
2022-10-23T19:55:51.613Z,9.63
2022-10-23T19:58:36.262Z,8.73
2022-10-23T20:01:22.685Z,8.63
2022-10-23T20:04:05.850Z,9.23
2022-10-23T20:06:48.857Z,8.17
2022-10-23T20:09:32.387Z,10.30
2022-10-23T20:12:15.547Z,9.37
2022-10-23T20:15:00.176Z,10.17
2022-10-23T20:17:43.187Z,9.13
2022-10-23T20:20:26.237Z,8.47
2022-10-23T20:23:09.595Z,9.40
2022-10-23T20:25:52.623Z,8.83
2022-10-23T20:28:36.323Z,9.03
2022-10-23T20:31:22.069Z,10.37
2022-10-23T20:34:05.107Z,9.97
2022-10-23T20:36:50.525Z,10.97
2022-10-23T20:39:35.720Z,9.80
2022-10-23T20:42:18.721Z,11.73
2022-10-23T20:45:03.527Z,10.77
2022-10-23T20:47:48.011Z,10.57
2022-10-23T20:50:31.055Z,9.53
2022-10-23T20:53:14.124Z,10.03
2022-10-23T20:55:57.160Z,10.10
2022-10-23T20:58:40.383Z,9.93
2022-10-23T21:01:24.161Z,9.80
2022-10-23T21:04:09.032Z,8.90
2022-10-23T21:07:10.795Z,8.57
2022-10-23T21:09:54.501Z,9.60
2022-10-23T21:12:37.514Z,9.13
2022-10-23T21:15:20.692Z,8.70
2022-10-23T21:18:13.137Z,10.17
2022-10-23T21:21:08.199Z,8.47
2022-10-23T21:23:53.868Z,8.53
2022-10-23T21:26:36.999Z,9.97
2022-10-23T21:29:20.599Z,8.83
2022-10-23T21:32:04.102Z,8.67
2022-10-23T21:34:47.116Z,9.70
2022-10-23T21:37:31.453Z,8.27
2022-10-23T21:40:14.506Z,8.90
2022-10-23T21:42:57.491Z,10.73
2022-10-23T21:45:40.492Z,9.70
2022-10-23T21:48:23.502Z,8.87
2022-10-23T21:51:06.897Z,10.57
2022-10-23T21:53:51.996Z,11.60
2022-10-23T21:56:39.897Z,11.30
2022-10-23T21:59:25.792Z,10.80
2022-10-23T22:02:11.212Z,11.63
2022-10-23T22:04:54.410Z,10.67
2022-10-23T22:07:37.384Z,11.37
2022-10-23T22:10:21.762Z,13.10
2022-10-23T22:13:04.958Z,12.27
2022-10-23T22:15:47.928Z,13.13
2022-10-23T22:18:31.011Z,12.57
2022-10-23T22:21:16.612Z,12.03
2022-10-23T22:24:01.709Z,13.13
2022-10-23T22:26:48.084Z,12.90
2022-10-23T22:29:31.057Z,12.83
2022-10-23T22:32:14.113Z,12.27
2022-10-23T22:34:57.218Z,13.53
2022-10-23T22:37:40.251Z,12.70
2022-10-23T22:40:23.248Z,12.30
2022-10-23T22:43:07.663Z,13.07
2022-10-23T22:45:50.612Z,12.23
2022-10-23T22:48:33.638Z,13.13
2022-10-23T22:51:18.740Z,14.60
2022-10-23T22:54:01.937Z,14.30
2022-10-23T22:56:44.990Z,13.93
2022-10-23T22:59:29.457Z,14.80
2022-10-23T23:02:12.411Z,13.73
2022-10-23T23:04:55.380Z,19.40
2022-10-23T23:07:38.371Z,19.17
2022-10-23T23:10:21.328Z,15.37
2022-10-23T23:13:04.340Z,15.93
2022-10-23T23:15:48.792Z,15.13
2022-10-23T23:18:32.262Z,15.80
2022-10-23T23:21:15.926Z,14.97
2022-10-23T23:23:59.670Z,14.43
2022-10-23T23:26:42.709Z,14.53
2022-10-23T23:29:25.786Z,14.17
2022-10-23T23:32:11.518Z,14.40
2022-10-23T23:34:54.505Z,13.90
2022-10-23T23:37:37.552Z,13.20
2022-10-23T23:40:20.590Z,13.27
2022-10-23T23:43:03.628Z,12.73
2022-10-23T23:45:46.659Z,10.63
2022-10-23T23:48:31.102Z,12.53
2022-10-23T23:51:14.446Z,9.77
2022-10-23T23:53:57.444Z,12.07
2022-10-23T23:56:40.486Z,10.90
2022-10-23T23:59:23.586Z,12.67
